Terminal Aerodrome Forecast
Issued by NWS

Home | Current Version | Previous Version | Text Only | Print | Product List | Glossary Off
Versions: 1 2 3 4 5 6 7 8 9 10 11 12 13 14

000
FTUS43 KTOP 231100
TAFFOE
TAF
KFOE 231125Z 2312/2412 29007KT P6SM BKN035
     FM231500 31013KT P6SM BKN018
     FM240000 34015G22KT 3SM -RASN BR OVC007=

USA.gov is the U.S. government's official web portal to all federal, state and local government web resources and services.